Blackhead, Ireland
Current Conditions -  °F | °C
As of 8:30 PM on Saturday 20 Dec 2014 (Local Time) from EINN Reporting Station
Broken Clouds Broken Clouds  
Wind Chill: 42°   Ceiling: 3200
Heat Index: 46°   Visibility: 6mi
Dew Point: 41°   Wind: 9mph
Humidity: 81%   Direction: 180°S
Pressure: 30.39"   Gusts: NA
Location:  53.17°N, 9.33°W
Report Text: EINN 202030Z 18008KT 9999 FEW020 BKN032 08/05 Q1029 NOSIG
Loading
Personal Weather Stations






























Interactive Weather Map New forecast layout! Learn more

10-Day Weather Forecast

Advertisements
Track Severe Weather on mobile